createdAt,value
2022-09-15T00:00:38.292Z,3.33
2022-09-15T00:05:39.837Z,3.20
2022-09-15T00:10:54.067Z,5.20
2022-09-15T00:15:55.620Z,4.97
2022-09-15T00:20:57.339Z,3.45
2022-09-15T00:25:58.873Z,4.75
2022-09-15T00:31:00.508Z,5.10
2022-09-15T00:36:05.099Z,3.65
2022-09-15T00:41:08.757Z,4.13
2022-09-15T00:46:10.732Z,4.28
2022-09-15T00:51:16.753Z,3.47
2022-09-15T00:56:19.741Z,6.13
2022-09-15T01:01:25.203Z,3.90
2022-09-15T01:06:36.305Z,3.85
2022-09-15T01:11:39.788Z,4.75
2022-09-15T01:16:57.679Z,3.90
2022-09-15T01:22:32.431Z,3.65
2022-09-15T01:28:11.223Z,4.82
2022-09-15T01:33:38.991Z,4.90
2022-09-15T01:39:00.875Z,6.43
2022-09-15T01:44:21.617Z,7.53
2022-09-15T01:49:28.053Z,5.00
2022-09-15T01:54:35.979Z,9.23
2022-09-15T01:59:37.523Z,5.40
2022-09-15T02:04:48.535Z,5.60
2022-09-15T02:10:05.468Z,5.00
2022-09-15T02:15:12.186Z,4.82
2022-09-15T02:21:13.833Z,4.72
2022-09-15T02:26:19.580Z,5.38
2022-09-15T02:31:24.993Z,4.35
2022-09-15T02:36:29.180Z,3.97
2022-09-15T02:41:31.098Z,5.97
2022-09-15T02:46:34.046Z,8.25
2022-09-15T02:51:35.955Z,5.85
2022-09-15T02:56:37.879Z,4.57
2022-09-15T03:01:40.853Z,3.92
2022-09-15T03:06:43.572Z,2.83
2022-09-15T03:11:45.148Z,8.45
2022-09-15T03:16:47.510Z,3.50
2022-09-15T03:21:49.083Z,5.65
2022-09-15T03:26:50.590Z,3.65
2022-09-15T03:31:52.183Z,2.85
2022-09-15T03:36:53.743Z,3.55
2022-09-15T03:41:55.615Z,4.22
2022-09-15T03:46:58.212Z,3.17
2022-09-15T03:51:59.763Z,2.55
2022-09-15T03:57:01.500Z,4.20
2022-09-15T04:02:03.177Z,4.82
2022-09-15T04:07:09.955Z,3.28
2022-09-15T04:12:11.615Z,4.45
2022-09-15T04:17:13.149Z,3.80
2022-09-15T04:22:17.853Z,2.58
2022-09-15T04:27:19.724Z,2.20
2022-09-15T04:32:21.964Z,6.70
2022-09-15T04:37:23.667Z,4.47
2022-09-15T04:42:33.990Z,5.97
2022-09-15T04:47:35.590Z,6.53
2022-09-15T04:52:37.147Z,5.28
2022-09-15T04:57:38.671Z,7.75
2022-09-15T05:02:40.383Z,6.65
2022-09-15T05:07:41.878Z,30.25
2022-09-15T05:12:43.393Z,8.32
2022-09-15T05:17:44.914Z,8.52
2022-09-15T05:22:46.470Z,14.45
2022-09-15T05:27:47.991Z,7.75
2022-09-15T05:32:49.558Z,5.43
2022-09-15T05:37:51.111Z,6.63
2022-09-15T05:42:52.839Z,7.88
2022-09-15T05:47:54.341Z,6.53
2022-09-15T05:52:55.942Z,6.82
2022-09-15T05:57:57.502Z,8.20
2022-09-15T06:02:59.123Z,9.93
2022-09-15T06:08:00.891Z,9.23
2022-09-15T06:13:02.399Z,7.13
2022-09-15T06:18:03.994Z,11.10
2022-09-15T06:23:05.524Z,6.72
2022-09-15T06:28:10.033Z,9.55
2022-09-15T06:33:11.541Z,7.45
2022-09-15T06:38:13.402Z,6.45
2022-09-15T06:43:14.955Z,5.68
2022-09-15T06:48:24.573Z,6.00
2022-09-15T06:53:34.834Z,6.55
2022-09-15T06:58:38.642Z,4.95
2022-09-15T07:03:42.792Z,5.85
2022-09-15T07:08:45.363Z,5.82
2022-09-15T07:13:49.097Z,9.00
2022-09-15T07:18:51.004Z,5.40
2022-09-15T07:23:52.813Z,6.03
2022-09-15T07:28:57.087Z,5.07
2022-09-15T07:33:59.949Z,4.32
2022-09-15T07:39:03.586Z,4.78
2022-09-15T07:44:06.918Z,6.43
2022-09-15T07:49:10.514Z,6.07
2022-09-15T07:54:12.281Z,6.20
2022-09-15T07:59:15.033Z,8.82
2022-09-15T08:04:16.607Z,15.88
2022-09-15T08:09:18.308Z,14.90
2022-09-15T08:14:19.884Z,14.65
2022-09-15T08:19:21.404Z,17.02
2022-09-15T08:24:23.591Z,21.55
2022-09-15T08:29:25.228Z,22.02
2022-09-15T08:34:27.623Z,30.45
2022-09-15T08:39:29.188Z,27.92
2022-09-15T08:44:41.263Z,20.27
2022-09-15T08:50:05.121Z,22.40
2022-09-15T08:55:43.729Z,17.70
2022-09-15T09:00:52.921Z,21.10
2022-09-15T09:06:06.010Z,22.67
2022-09-15T09:11:12.951Z,32.35
2022-09-15T09:16:43.658Z,30.75
2022-09-15T09:21:51.833Z,29.90
2022-09-15T09:26:57.120Z,26.85
2022-09-15T09:31:59.955Z,32.97
2022-09-15T09:37:11.119Z,26.27
2022-09-15T09:42:18.493Z,25.60
2022-09-15T09:47:20.775Z,30.13
2022-09-15T09:52:39.166Z,17.52
2022-09-15T09:57:41.008Z,11.75
2022-09-15T10:02:48.717Z,17.35
2022-09-15T10:07:50.406Z,12.35
2022-09-15T10:12:56.507Z,19.85
2022-09-15T10:17:58.242Z,24.92
2022-09-15T10:23:14.828Z,18.73
2022-09-15T10:28:25.748Z,19.85
2022-09-15T10:33:50.315Z,20.02
2022-09-15T10:39:35.504Z,21.05
2022-09-15T10:44:52.875Z,21.20
2022-09-15T10:50:13.189Z,19.85
2022-09-15T10:55:48.960Z,20.65
2022-09-15T11:01:22.498Z,17.58
2022-09-15T11:06:41.934Z,16.70
2022-09-15T11:12:18.120Z,18.83
2022-09-15T11:17:31.350Z,16.13
2022-09-15T11:22:47.291Z,16.27
2022-09-15T11:28:00.019Z,13.20
2022-09-15T11:33:14.778Z,10.98
2022-09-15T11:38:31.198Z,10.93
2022-09-15T11:43:50.729Z,7.55
2022-09-15T11:49:02.038Z,7.75
2022-09-15T11:54:15.896Z,7.82
2022-09-15T11:59:39.610Z,6.95
2022-09-15T12:05:03.282Z,6.93
2022-09-15T12:10:13.771Z,7.22
2022-09-15T12:15:18.969Z,6.30
2022-09-15T12:20:51.112Z,8.07
2022-09-15T12:26:05.248Z,7.28
2022-09-15T12:31:38.703Z,9.18
2022-09-15T12:36:42.594Z,8.75
2022-09-15T12:41:58.250Z,8.25
2022-09-15T12:47:01.750Z,6.40
2022-09-15T12:52:07.336Z,6.90
2022-09-15T12:57:31.927Z,6.50
2022-09-15T13:02:48.492Z,6.65
2022-09-15T13:07:57.587Z,7.80
2022-09-15T13:13:51.828Z,6.03
2022-09-15T13:19:15.410Z,7.18
2022-09-15T13:24:40.422Z,6.05
2022-09-15T13:30:07.867Z,6.75
2022-09-15T13:35:24.960Z,5.55
2022-09-15T13:40:53.579Z,4.07
2022-09-15T13:46:27.473Z,5.53
2022-09-15T13:51:31.470Z,5.18
2022-09-15T13:56:39.862Z,6.45
2022-09-15T14:01:46.595Z,5.40
2022-09-15T14:06:51.678Z,6.40
2022-09-15T14:11:57.842Z,5.78
2022-09-15T14:16:59.491Z,5.00
2022-09-15T14:22:20.119Z,4.72
2022-09-15T14:27:27.687Z,4.13
2022-09-15T14:32:34.308Z,4.90
2022-09-15T14:37:35.979Z,3.08
2022-09-15T14:42:41.310Z,5.45
2022-09-15T14:47:43.414Z,6.15
2022-09-15T14:52:58.232Z,3.85
2022-09-15T14:58:13.361Z,4.28
2022-09-15T15:03:33.149Z,4.03
2022-09-15T15:08:44.516Z,4.97
2022-09-15T15:13:50.462Z,3.75
2022-09-15T15:18:53.244Z,5.35
2022-09-15T15:23:55.333Z,3.53
2022-09-15T15:28:56.960Z,3.33
2022-09-15T15:34:05.151Z,5.07
2022-09-15T15:39:08.075Z,3.53
2022-09-15T15:44:15.327Z,4.25
2022-09-15T15:49:18.015Z,4.18
2022-09-15T15:54:19.626Z,5.53
2022-09-15T15:59:21.581Z,4.07
2022-09-15T16:04:23.064Z,4.93
2022-09-15T16:09:24.596Z,3.28
2022-09-15T16:14:26.139Z,4.78
2022-09-15T16:19:27.659Z,4.32
2022-09-15T16:24:29.173Z,4.22
2022-09-15T16:29:36.172Z,4.63
2022-09-15T16:34:37.875Z,4.57
2022-09-15T16:39:39.370Z,4.75
2022-09-15T16:44:40.866Z,4.57
2022-09-15T16:49:42.667Z,4.57
2022-09-15T16:54:44.667Z,5.53
2022-09-15T16:59:46.162Z,3.95
2022-09-15T17:04:47.651Z,3.40
2022-09-15T17:09:51.231Z,3.78
2022-09-15T17:14:52.739Z,5.90
2022-09-15T17:19:54.221Z,3.95
2022-09-15T17:24:55.698Z,5.03
2022-09-15T17:29:57.412Z,4.93
2022-09-15T17:34:59.958Z,4.13
2022-09-15T17:40:02.639Z,5.38
2022-09-15T17:45:19.179Z,4.25
2022-09-15T17:50:22.692Z,5.28
2022-09-15T17:55:32.663Z,5.18
2022-09-15T18:05:37.688Z,5.43
2022-09-15T18:10:39.316Z,4.53
2022-09-15T18:15:41.399Z,5.40
2022-09-15T18:20:43.675Z,4.63
2022-09-15T18:25:47.007Z,4.75
2022-09-15T18:30:50.244Z,5.20
2022-09-15T18:35:54.783Z,4.45
2022-09-15T18:40:57.165Z,4.10
2022-09-15T18:46:00.077Z,6.45
2022-09-15T18:51:01.779Z,6.60
2022-09-15T18:56:14.339Z,6.07
2022-09-15T19:01:17.880Z,8.20
2022-09-15T19:06:19.491Z,5.10
2022-09-15T19:11:21.065Z,6.18
2022-09-15T19:16:34.610Z,8.85
2022-09-15T19:21:47.107Z,14.48
2022-09-15T19:26:48.807Z,9.88
2022-09-15T19:31:50.398Z,5.88
2022-09-15T19:36:51.940Z,6.53
2022-09-15T19:41:53.514Z,8.00
2022-09-15T19:46:55.031Z,8.57
2022-09-15T19:51:56.636Z,6.82
2022-09-15T19:56:58.215Z,7.80
2022-09-15T20:02:00.793Z,7.75
2022-09-15T20:07:02.382Z,10.93
2022-09-15T20:12:04.087Z,10.82
2022-09-15T20:17:05.925Z,8.55
2022-09-15T20:22:07.511Z,8.02
2022-09-15T20:27:09.142Z,9.23
2022-09-15T20:32:10.721Z,8.98
2022-09-15T20:37:12.291Z,13.05
2022-09-15T20:42:13.791Z,7.88
2022-09-15T20:47:15.615Z,9.32
2022-09-15T20:52:17.102Z,9.82
2022-09-15T20:57:18.591Z,10.98
2022-09-15T21:02:20.180Z,13.23
2022-09-15T21:07:23.822Z,12.77
2022-09-15T21:12:25.455Z,9.13
2022-09-15T21:17:28.927Z,8.55
2022-09-15T21:22:30.414Z,13.55
2022-09-15T21:27:31.956Z,13.63
2022-09-15T21:32:33.751Z,12.25
2022-09-15T21:37:35.401Z,13.70
2022-09-15T21:42:36.910Z,11.65
2022-09-15T21:47:38.405Z,10.43
2022-09-15T21:52:39.926Z,10.10
2022-09-15T21:57:41.451Z,16.55
2022-09-15T22:02:42.977Z,12.88
2022-09-15T22:07:44.523Z,11.93
2022-09-15T22:12:48.216Z,13.85
2022-09-15T22:17:49.936Z,14.85
2022-09-15T22:22:51.678Z,11.77
2022-09-15T22:27:53.174Z,10.55
2022-09-15T22:32:54.660Z,9.80
2022-09-15T22:37:56.215Z,8.88
2022-09-15T22:42:57.786Z,10.68
2022-09-15T22:47:59.290Z,15.02
2022-09-15T22:53:00.841Z,11.95
2022-09-15T22:58:02.338Z,10.65
2022-09-15T23:03:04.168Z,10.10
2022-09-15T23:08:05.669Z,11.68
2022-09-15T23:13:07.180Z,12.15
2022-09-15T23:18:08.735Z,9.15
2022-09-15T23:23:10.525Z,11.07
2022-09-15T23:28:12.023Z,10.73
2022-09-15T23:33:13.545Z,10.45
2022-09-15T23:38:15.667Z,12.88
2022-09-15T23:43:17.896Z,14.30
2022-09-15T23:48:20.017Z,12.65
2022-09-15T23:53:21.707Z,12.05
2022-09-15T23:58:23.227Z,9.63
